Accueil
METAR-TAF:

METAR-TAF

Aéroports :

Arnhem, Pays-Bas

latitude: 52-04N, longitude: 005-53E, altitude: 48 m

Observation

Le bulletin a été fait il y a 25 minutes, à 18:25 UTC
Vent calme
Température 10°C
Humidité 100%
Pression 1019 hPa
Visibilité: 9000 m
Nuages fragmentés à une hauteur de 27000 ft
Nuages fragmentés à une hauteur de 33000 ft
brume

METAR: EHDL 171825Z AUTO 00000KT 9000 BR BKN270 BKN330 10/10 Q1019 BLACKBLU

Heure: 20:50 (18:50 UTC)


TAF: absent

Observations et prévisions météorologiques de plus de 4000 aéroports (messages METAR et TAF).

Les stations disponibles sont représentées par des disques jaunes et rouges sur la carte.

Passer la souris dessus pour voir le nom de la station.

Cliquer dessus pour voir les observations et prévisions météorologiques.

Pour changer de carte: cliquez sur les boutons verts avec une croix noire pour zoomer, sur le bouton vert avec un tiret pour effectuer un zoom arrière, ou sur les flèches vertes pour les cartes adjacentes.


METAR-TAF: